sensor_id;sensor_type;location;lat;lon;timestamp;temperature;humidity
15133;DHT22;7667;51.232;17.110;2023-08-21T00:01:27;20.90;99.90
15133;DHT22;7667;51.232;17.110;2023-08-21T00:03:54;20.90;99.90
15133;DHT22;7667;51.232;17.110;2023-08-21T00:06:22;21.00;99.90
15133;DHT22;7667;51.232;17.110;2023-08-21T00:08:50;21.00;99.90
15133;DHT22;7667;51.232;17.110;2023-08-21T00:11:17;21.10;99.90
15133;DHT22;7667;51.232;17.110;2023-08-21T00:13:45;21.10;99.90
15133;DHT22;7667;51.232;17.110;2023-08-21T00:16:17;21.20;99.90
15133;DHT22;7667;51.232;17.110;2023-08-21T00:18:45;21.30;99.90
15133;DHT22;7667;51.232;17.110;2023-08-21T00:21:12;21.40;99.90
15133;DHT22;7667;51.232;17.110;2023-08-21T00:23:40;21.50;99.90
15133;DHT22;7667;51.232;17.110;2023-08-21T00:26:07;21.60;99.90
15133;DHT22;7667;51.232;17.110;2023-08-21T00:28:35;21.70;99.90
15133;DHT22;7667;51.232;17.110;2023-08-21T00:31:03;21.80;99.90
15133;DHT22;7667;51.232;17.110;2023-08-21T00:33:32;21.90;99.90
15133;DHT22;7667;51.232;17.110;2023-08-21T00:36:00;21.90;99.90
15133;DHT22;7667;51.232;17.110;2023-08-21T00:38:28;21.90;99.90
15133;DHT22;7667;51.232;17.110;2023-08-21T00:40:55;21.90;99.90
15133;DHT22;7667;51.232;17.110;2023-08-21T00:43:24;21.90;99.90
15133;DHT22;7667;51.232;17.110;2023-08-21T00:45:52;21.90;99.90
15133;DHT22;7667;51.232;17.110;2023-08-21T00:48:20;21.90;99.90
15133;DHT22;7667;51.232;17.110;2023-08-21T00:50:48;22.00;99.90
15133;DHT22;7667;51.232;17.110;2023-08-21T00:53:16;22.00;99.90
15133;DHT22;7667;51.232;17.110;2023-08-21T00:55:43;21.90;99.90
15133;DHT22;7667;51.232;17.110;2023-08-21T00:58:12;22.00;99.90
15133;DHT22;7667;51.232;17.110;2023-08-21T01:00:42;22.00;99.90
15133;DHT22;7667;51.232;17.110;2023-08-21T01:03:12;22.00;99.90
15133;DHT22;7667;51.232;17.110;2023-08-21T01:05:40;22.00;99.90
15133;DHT22;7667;51.232;17.110;2023-08-21T01:08:40;22.00;99.90
15133;DHT22;7667;51.232;17.110;2023-08-21T01:12:22;22.00;99.90
15133;DHT22;7667;51.232;17.110;2023-08-21T01:15:07;22.00;99.90
15133;DHT22;7667;51.232;17.110;2023-08-21T01:17:37;22.10;99.90
15133;DHT22;7667;51.232;17.110;2023-08-21T01:20:07;22.10;99.90
15133;DHT22;7667;51.232;17.110;2023-08-21T01:22:41;22.10;99.90
15133;DHT22;7667;51.232;17.110;2023-08-21T01:25:17;22.10;99.90
15133;DHT22;7667;51.232;17.110;2023-08-21T01:27:48;22.10;99.90
15133;DHT22;7667;51.232;17.110;2023-08-21T01:30:16;22.10;99.90
15133;DHT22;7667;51.232;17.110;2023-08-21T01:35:28;22.10;99.90
15133;DHT22;7667;51.232;17.110;2023-08-21T01:37:57;22.00;99.90
15133;DHT22;7667;51.232;17.110;2023-08-21T01:40:25;22.00;99.90
15133;DHT22;7667;51.232;17.110;2023-08-21T01:42:53;22.00;99.90
15133;DHT22;7667;51.232;17.110;2023-08-21T01:45:21;22.10;99.90
15133;DHT22;7667;51.232;17.110;2023-08-21T01:47:49;22.10;99.90
15133;DHT22;7667;51.232;17.110;2023-08-21T01:50:18;22.10;99.90
15133;DHT22;7667;51.232;17.110;2023-08-21T01:52:46;22.10;99.90
15133;DHT22;7667;51.232;17.110;2023-08-21T01:55:13;22.10;99.90
15133;DHT22;7667;51.232;17.110;2023-08-21T01:57:41;22.10;99.90
15133;DHT22;7667;51.232;17.110;2023-08-21T02:00:09;22.00;99.90
15133;DHT22;7667;51.232;17.110;2023-08-21T02:02:38;21.90;99.90
15133;DHT22;7667;51.232;17.110;2023-08-21T02:05:06;21.70;99.90
15133;DHT22;7667;51.232;17.110;2023-08-21T02:07:34;21.60;99.90
15133;DHT22;7667;51.232;17.110;2023-08-21T02:10:01;21.60;99.90
15133;DHT22;7667;51.232;17.110;2023-08-21T02:12:29;21.50;99.90
15133;DHT22;7667;51.232;17.110;2023-08-21T02:14:56;21.50;99.90
15133;DHT22;7667;51.232;17.110;2023-08-21T02:17:26;21.50;99.90
15133;DHT22;7667;51.232;17.110;2023-08-21T02:19:54;21.50;99.90
15133;DHT22;7667;51.232;17.110;2023-08-21T02:22:21;21.40;99.90
15133;DHT22;7667;51.232;17.110;2023-08-21T02:24:49;21.40;99.90
15133;DHT22;7667;51.232;17.110;2023-08-21T02:27:16;21.40;99.90
15133;DHT22;7667;51.232;17.110;2023-08-21T02:29:44;21.30;99.90
15133;DHT22;7667;51.232;17.110;2023-08-21T02:32:11;21.10;99.90
15133;DHT22;7667;51.232;17.110;2023-08-21T02:34:40;21.00;99.90
15133;DHT22;7667;51.232;17.110;2023-08-21T02:37:07;21.00;99.90
15133;DHT22;7667;51.232;17.110;2023-08-21T02:39:35;20.90;99.90
15133;DHT22;7667;51.232;17.110;2023-08-21T02:42:02;20.90;99.90
15133;DHT22;7667;51.232;17.110;2023-08-21T02:44:30;20.90;99.90
15133;DHT22;7667;51.232;17.110;2023-08-21T02:46:57;20.90;99.90
15133;DHT22;7667;51.232;17.110;2023-08-21T02:49:25;21.00;99.90
15133;DHT22;7667;51.232;17.110;2023-08-21T02:51:52;21.00;99.90
15133;DHT22;7667;51.232;17.110;2023-08-21T02:54:20;21.00;99.90
15133;DHT22;7667;51.232;17.110;2023-08-21T02:56:48;21.00;99.90
15133;DHT22;7667;51.232;17.110;2023-08-21T02:59:15;20.90;99.90
15133;DHT22;7667;51.232;17.110;2023-08-21T03:01:44;20.90;99.90
15133;DHT22;7667;51.232;17.110;2023-08-21T03:04:12;20.90;99.90
15133;DHT22;7667;51.232;17.110;2023-08-21T03:06:40;20.90;99.90
15133;DHT22;7667;51.232;17.110;2023-08-21T03:09:07;20.90;99.90
15133;DHT22;7667;51.232;17.110;2023-08-21T03:11:35;20.80;99.90
15133;DHT22;7667;51.232;17.110;2023-08-21T03:14:02;20.80;99.90
15133;DHT22;7667;51.232;17.110;2023-08-21T03:16:30;20.80;99.90
15133;DHT22;7667;51.232;17.110;2023-08-21T03:18:59;20.80;99.90
15133;DHT22;7667;51.232;17.110;2023-08-21T03:21:28;20.80;99.90
15133;DHT22;7667;51.232;17.110;2023-08-21T03:23:59;20.80;99.90
15133;DHT22;7667;51.232;17.110;2023-08-21T03:26:30;20.80;99.90
15133;DHT22;7667;51.232;17.110;2023-08-21T03:28:58;20.80;99.90
15133;DHT22;7667;51.232;17.110;2023-08-21T03:31:26;20.70;99.90
15133;DHT22;7667;51.232;17.110;2023-08-21T03:33:53;20.70;99.90
15133;DHT22;7667;51.232;17.110;2023-08-21T03:36:21;20.70;99.90
15133;DHT22;7667;51.232;17.110;2023-08-21T03:38:58;20.70;99.90
15133;DHT22;7667;51.232;17.110;2023-08-21T03:41:26;20.60;99.90
15133;DHT22;7667;51.232;17.110;2023-08-21T03:43:54;20.60;99.90
15133;DHT22;7667;51.232;17.110;2023-08-21T03:46:22;20.50;99.90
15133;DHT22;7667;51.232;17.110;2023-08-21T03:48:50;20.60;99.90
15133;DHT22;7667;51.232;17.110;2023-08-21T03:51:18;20.60;99.90
15133;DHT22;7667;51.232;17.110;2023-08-21T03:53:46;20.50;99.90
15133;DHT22;7667;51.232;17.110;2023-08-21T03:56:13;20.50;99.90
15133;DHT22;7667;51.232;17.110;2023-08-21T03:58:41;20.50;99.90
15133;DHT22;7667;51.232;17.110;2023-08-21T04:01:09;20.50;99.90
15133;DHT22;7667;51.232;17.110;2023-08-21T04:03:37;20.50;99.90
15133;DHT22;7667;51.232;17.110;2023-08-21T04:06:04;20.40;99.90
15133;DHT22;7667;51.232;17.110;2023-08-21T04:08:32;20.40;99.90
15133;DHT22;7667;51.232;17.110;2023-08-21T04:11:01;20.40;99.90
15133;DHT22;7667;51.232;17.110;2023-08-21T04:13:28;20.50;99.90
15133;DHT22;7667;51.232;17.110;2023-08-21T04:15:56;20.40;99.90
15133;DHT22;7667;51.232;17.110;2023-08-21T04:18:24;20.40;99.90
15133;DHT22;7667;51.232;17.110;2023-08-21T04:21:07;20.40;99.90
15133;DHT22;7667;51.232;17.110;2023-08-21T04:23:36;20.40;99.90
15133;DHT22;7667;51.232;17.110;2023-08-21T04:26:04;20.30;99.90
15133;DHT22;7667;51.232;17.110;2023-08-21T04:28:32;20.00;99.90
15133;DHT22;7667;51.232;17.110;2023-08-21T04:31:00;19.80;99.90
15133;DHT22;7667;51.232;17.110;2023-08-21T04:33:28;19.50;99.90
15133;DHT22;7667;51.232;17.110;2023-08-21T04:35:56;19.40;99.90
15133;DHT22;7667;51.232;17.110;2023-08-21T04:38:24;19.30;99.90
15133;DHT22;7667;51.232;17.110;2023-08-21T04:40:51;19.30;99.90
15133;DHT22;7667;51.232;17.110;2023-08-21T04:43:19;19.20;99.90
15133;DHT22;7667;51.232;17.110;2023-08-21T04:45:51;19.20;99.90
15133;DHT22;7667;51.232;17.110;2023-08-21T04:48:22;19.20;99.90
15133;DHT22;7667;51.232;17.110;2023-08-21T04:50:50;19.20;99.90
15133;DHT22;7667;51.232;17.110;2023-08-21T04:53:17;19.30;99.90
15133;DHT22;7667;51.232;17.110;2023-08-21T04:55:45;19.30;99.90
15133;DHT22;7667;51.232;17.110;2023-08-21T04:58:14;19.30;99.90
15133;DHT22;7667;51.232;17.110;2023-08-21T05:00:41;19.20;99.90
15133;DHT22;7667;51.232;17.110;2023-08-21T05:03:11;19.20;99.90
15133;DHT22;7667;51.232;17.110;2023-08-21T05:05:39;19.10;99.90
15133;DHT22;7667;51.232;17.110;2023-08-21T05:08:07;18.90;99.90
15133;DHT22;7667;51.232;17.110;2023-08-21T05:10:35;18.90;99.90
15133;DHT22;7667;51.232;17.110;2023-08-21T05:13:04;18.90;99.90
15133;DHT22;7667;51.232;17.110;2023-08-21T05:15:31;19.00;99.90
15133;DHT22;7667;51.232;17.110;2023-08-21T05:17:59;19.00;99.90
15133;DHT22;7667;51.232;17.110;2023-08-21T05:20:27;18.90;99.90
15133;DHT22;7667;51.232;17.110;2023-08-21T05:22:55;18.90;99.90
15133;DHT22;7667;51.232;17.110;2023-08-21T05:25:22;18.80;99.90
15133;DHT22;7667;51.232;17.110;2023-08-21T05:27:50;18.70;99.90
15133;DHT22;7667;51.232;17.110;2023-08-21T05:30:18;18.60;99.90
15133;DHT22;7667;51.232;17.110;2023-08-21T05:32:46;18.70;99.90
15133;DHT22;7667;51.232;17.110;2023-08-21T05:35:13;18.60;99.90
15133;DHT22;7667;51.232;17.110;2023-08-21T05:37:41;18.50;99.90
15133;DHT22;7667;51.232;17.110;2023-08-21T05:40:09;18.40;99.90
15133;DHT22;7667;51.232;17.110;2023-08-21T05:42:37;18.30;99.90
15133;DHT22;7667;51.232;17.110;2023-08-21T05:45:06;18.20;99.90
15133;DHT22;7667;51.232;17.110;2023-08-21T05:47:33;18.20;99.90
15133;DHT22;7667;51.232;17.110;2023-08-21T05:50:01;18.10;99.90
15133;DHT22;7667;51.232;17.110;2023-08-21T05:52:29;18.10;99.90
15133;DHT22;7667;51.232;17.110;2023-08-21T05:54:56;18.10;99.90
15133;DHT22;7667;51.232;17.110;2023-08-21T05:57:24;18.30;99.90
15133;DHT22;7667;51.232;17.110;2023-08-21T05:59:52;18.40;99.90
15133;DHT22;7667;51.232;17.110;2023-08-21T06:02:20;18.50;99.90
15133;DHT22;7667;51.232;17.110;2023-08-21T06:04:47;18.50;99.90
15133;DHT22;7667;51.232;17.110;2023-08-21T06:07:15;18.70;99.90
15133;DHT22;7667;51.232;17.110;2023-08-21T06:09:42;18.70;99.90
15133;DHT22;7667;51.232;17.110;2023-08-21T06:12:10;19.00;99.90
15133;DHT22;7667;51.232;17.110;2023-08-21T06:14:37;19.30;99.90
15133;DHT22;7667;51.232;17.110;2023-08-21T06:17:05;19.70;99.90
15133;DHT22;7667;51.232;17.110;2023-08-21T06:19:33;20.00;99.90
15133;DHT22;7667;51.232;17.110;2023-08-21T06:22:00;20.20;99.90
15133;DHT22;7667;51.232;17.110;2023-08-21T06:24:28;20.30;99.90
15133;DHT22;7667;51.232;17.110;2023-08-21T06:26:55;20.40;99.90
15133;DHT22;7667;51.232;17.110;2023-08-21T06:29:23;20.40;99.90
15133;DHT22;7667;51.232;17.110;2023-08-21T06:31:51;20.50;99.90
15133;DHT22;7667;51.232;17.110;2023-08-21T06:34:19;20.70;99.90
15133;DHT22;7667;51.232;17.110;2023-08-21T06:36:46;20.90;99.90
15133;DHT22;7667;51.232;17.110;2023-08-21T06:39:14;21.10;99.90
15133;DHT22;7667;51.232;17.110;2023-08-21T06:41:41;21.50;99.90
15133;DHT22;7667;51.232;17.110;2023-08-21T06:44:09;21.70;99.90
15133;DHT22;7667;51.232;17.110;2023-08-21T06:46:36;22.00;99.90
15133;DHT22;7667;51.232;17.110;2023-08-21T06:49:04;22.00;99.90
15133;DHT22;7667;51.232;17.110;2023-08-21T06:51:32;21.90;99.90
15133;DHT22;7667;51.232;17.110;2023-08-21T06:54:00;22.00;99.90
15133;DHT22;7667;51.232;17.110;2023-08-21T06:56:27;21.90;99.90
15133;DHT22;7667;51.232;17.110;2023-08-21T06:58:55;21.90;99.90
15133;DHT22;7667;51.232;17.110;2023-08-21T07:01:22;21.80;99.90
15133;DHT22;7667;51.232;17.110;2023-08-21T07:03:50;21.70;99.90
15133;DHT22;7667;51.232;17.110;2023-08-21T07:06:18;21.40;99.90
15133;DHT22;7667;51.232;17.110;2023-08-21T07:08:45;21.00;99.90
15133;DHT22;7667;51.232;17.110;2023-08-21T07:11:13;20.60;99.90
15133;DHT22;7667;51.232;17.110;2023-08-21T07:13:43;20.40;99.90
15133;DHT22;7667;51.232;17.110;2023-08-21T07:16:11;20.30;99.90
15133;DHT22;7667;51.232;17.110;2023-08-21T07:18:39;20.20;99.90
15133;DHT22;7667;51.232;17.110;2023-08-21T07:21:06;20.30;99.90
15133;DHT22;7667;51.232;17.110;2023-08-21T07:23:54;20.60;99.90
15133;DHT22;7667;51.232;17.110;2023-08-21T07:26:21;21.00;99.90
15133;DHT22;7667;51.232;17.110;2023-08-21T07:28:49;21.40;99.90
15133;DHT22;7667;51.232;17.110;2023-08-21T07:31:16;21.70;99.90
15133;DHT22;7667;51.232;17.110;2023-08-21T07:33:44;21.70;99.90
15133;DHT22;7667;51.232;17.110;2023-08-21T07:36:12;21.50;99.90
15133;DHT22;7667;51.232;17.110;2023-08-21T07:38:44;21.20;99.90
15133;DHT22;7667;51.232;17.110;2023-08-21T07:41:12;20.80;99.90
15133;DHT22;7667;51.232;17.110;2023-08-21T07:43:41;20.60;99.90
15133;DHT22;7667;51.232;17.110;2023-08-21T07:46:11;20.80;99.90
15133;DHT22;7667;51.232;17.110;2023-08-21T07:48:45;21.10;99.90
15133;DHT22;7667;51.232;17.110;2023-08-21T07:51:13;21.20;99.90
15133;DHT22;7667;51.232;17.110;2023-08-21T07:53:41;21.10;99.90
15133;DHT22;7667;51.232;17.110;2023-08-21T07:56:09;21.10;99.90
15133;DHT22;7667;51.232;17.110;2023-08-21T07:58:36;21.60;99.90
15133;DHT22;7667;51.232;17.110;2023-08-21T08:01:04;22.10;99.90
15133;DHT22;7667;51.232;17.110;2023-08-21T08:03:32;22.20;99.90
15133;DHT22;7667;51.232;17.110;2023-08-21T08:06:00;22.30;99.90
15133;DHT22;7667;51.232;17.110;2023-08-21T08:08:27;22.40;99.90
15133;DHT22;7667;51.232;17.110;2023-08-21T08:11:01;22.70;99.90
15133;DHT22;7667;51.232;17.110;2023-08-21T08:13:30;23.00;99.90
15133;DHT22;7667;51.232;17.110;2023-08-21T08:15:57;23.10;99.90
15133;DHT22;7667;51.232;17.110;2023-08-21T08:18:25;23.20;99.90
15133;DHT22;7667;51.232;17.110;2023-08-21T08:20:53;23.10;99.90
15133;DHT22;7667;51.232;17.110;2023-08-21T08:23:20;22.70;99.90
15133;DHT22;7667;51.232;17.110;2023-08-21T08:25:50;22.60;99.90
15133;DHT22;7667;51.232;17.110;2023-08-21T08:28:18;22.60;99.90
15133;DHT22;7667;51.232;17.110;2023-08-21T08:30:46;22.50;99.90
15133;DHT22;7667;51.232;17.110;2023-08-21T08:33:14;22.50;99.90
15133;DHT22;7667;51.232;17.110;2023-08-21T08:35:43;22.80;99.90
15133;DHT22;7667;51.232;17.110;2023-08-21T08:38:12;23.00;99.90
15133;DHT22;7667;51.232;17.110;2023-08-21T08:40:45;23.20;99.90
15133;DHT22;7667;51.232;17.110;2023-08-21T08:43:14;23.30;99.90
15133;DHT22;7667;51.232;17.110;2023-08-21T08:45:44;23.20;99.90
15133;DHT22;7667;51.232;17.110;2023-08-21T08:48:16;23.20;99.90
15133;DHT22;7667;51.232;17.110;2023-08-21T08:50:44;22.60;99.90
15133;DHT22;7667;51.232;17.110;2023-08-21T08:53:12;22.30;99.90
15133;DHT22;7667;51.232;17.110;2023-08-21T08:55:44;22.50;99.90
15133;DHT22;7667;51.232;17.110;2023-08-21T08:58:12;23.20;99.90
15133;DHT22;7667;51.232;17.110;2023-08-21T09:00:39;23.60;99.90
15133;DHT22;7667;51.232;17.110;2023-08-21T09:03:07;24.10;99.90
15133;DHT22;7667;51.232;17.110;2023-08-21T09:05:38;24.60;99.90
15133;DHT22;7667;51.232;17.110;2023-08-21T09:10:35;25.30;99.90
15133;DHT22;7667;51.232;17.110;2023-08-21T09:13:13;25.10;99.90
15133;DHT22;7667;51.232;17.110;2023-08-21T09:15:43;24.80;99.90
15133;DHT22;7667;51.232;17.110;2023-08-21T09:18:12;24.80;99.90
15133;DHT22;7667;51.232;17.110;2023-08-21T09:20:40;24.60;99.90
15133;DHT22;7667;51.232;17.110;2023-08-21T09:23:13;24.10;99.90
15133;DHT22;7667;51.232;17.110;2023-08-21T09:25:46;23.80;99.90
15133;DHT22;7667;51.232;17.110;2023-08-21T09:28:19;23.60;99.90
15133;DHT22;7667;51.232;17.110;2023-08-21T09:30:52;23.60;99.90
15133;DHT22;7667;51.232;17.110;2023-08-21T09:33:22;24.10;99.90
15133;DHT22;7667;51.232;17.110;2023-08-21T09:35:54;24.50;99.90
15133;DHT22;7667;51.232;17.110;2023-08-21T09:38:22;24.80;99.90
15133;DHT22;7667;51.232;17.110;2023-08-21T09:40:54;24.80;99.90
15133;DHT22;7667;51.232;17.110;2023-08-21T09:43:23;24.60;99.90
15133;DHT22;7667;51.232;17.110;2023-08-21T09:45:53;24.80;99.90
15133;DHT22;7667;51.232;17.110;2023-08-21T09:48:26;24.90;99.90
15133;DHT22;7667;51.232;17.110;2023-08-21T09:50:54;24.90;99.90
15133;DHT22;7667;51.232;17.110;2023-08-21T09:53:23;25.00;99.90
15133;DHT22;7667;51.232;17.110;2023-08-21T09:55:54;25.30;99.90
15133;DHT22;7667;51.232;17.110;2023-08-21T09:58:23;25.20;99.90
15133;DHT22;7667;51.232;17.110;2023-08-21T10:00:52;25.30;99.90
15133;DHT22;7667;51.232;17.110;2023-08-21T10:03:25;25.40;99.90
15133;DHT22;7667;51.232;17.110;2023-08-21T10:05:56;25.60;99.90
15133;DHT22;7667;51.232;17.110;2023-08-21T10:08:25;25.50;99.90
15133;DHT22;7667;51.232;17.110;2023-08-21T10:10:55;25.90;99.90
15133;DHT22;7667;51.232;17.110;2023-08-21T10:13:23;26.20;99.90
15133;DHT22;7667;51.232;17.110;2023-08-21T10:15:51;26.40;99.90
15133;DHT22;7667;51.232;17.110;2023-08-21T10:18:24;27.00;99.90
15133;DHT22;7667;51.232;17.110;2023-08-21T10:20:56;27.50;99.90
15133;DHT22;7667;51.232;17.110;2023-08-21T10:23:38;27.70;99.90
15133;DHT22;7667;51.232;17.110;2023-08-21T10:26:12;27.50;99.90
15133;DHT22;7667;51.232;17.110;2023-08-21T10:28:57;27.70;99.90
15133;DHT22;7667;51.232;17.110;2023-08-21T10:34:07;27.40;99.90
15133;DHT22;7667;51.232;17.110;2023-08-21T10:36:40;27.40;99.90
15133;DHT22;7667;51.232;17.110;2023-08-21T10:39:27;27.20;99.90
15133;DHT22;7667;51.232;17.110;2023-08-21T10:42:10;26.80;99.90
15133;DHT22;7667;51.232;17.110;2023-08-21T10:47:32;27.30;99.90
15133;DHT22;7667;51.232;17.110;2023-08-21T10:50:05;27.90;99.90
15133;DHT22;7667;51.232;17.110;2023-08-21T10:52:39;28.20;99.90
15133;DHT22;7667;51.232;17.110;2023-08-21T10:55:15;28.70;99.90
15133;DHT22;7667;51.232;17.110;2023-08-21T10:57:48;29.10;99.90
15133;DHT22;7667;51.232;17.110;2023-08-21T11:00:18;29.00;99.90
15133;DHT22;7667;51.232;17.110;2023-08-21T11:02:48;29.30;99.90
15133;DHT22;7667;51.232;17.110;2023-08-21T11:05:17;29.10;99.90
15133;DHT22;7667;51.232;17.110;2023-08-21T11:07:46;28.50;99.90
15133;DHT22;7667;51.232;17.110;2023-08-21T11:10:17;28.20;99.90
15133;DHT22;7667;51.232;17.110;2023-08-21T11:12:51;28.40;99.90
15133;DHT22;7667;51.232;17.110;2023-08-21T11:15:24;28.40;99.90
15133;DHT22;7667;51.232;17.110;2023-08-21T11:17:57;28.50;99.90
15133;DHT22;7667;51.232;17.110;2023-08-21T11:20:34;28.20;99.90
15133;DHT22;7667;51.232;17.110;2023-08-21T11:23:04;28.30;99.90
15133;DHT22;7667;51.232;17.110;2023-08-21T11:25:37;29.00;99.90
15133;DHT22;7667;51.232;17.110;2023-08-21T11:28:05;29.40;99.90
15133;DHT22;7667;51.232;17.110;2023-08-21T11:30:34;28.90;99.90
15133;DHT22;7667;51.232;17.110;2023-08-21T11:35:38;29.30;99.90
15133;DHT22;7667;51.232;17.110;2023-08-21T11:38:06;30.10;99.90
15133;DHT22;7667;51.232;17.110;2023-08-21T11:41:09;31.60;93.80
15133;DHT22;7667;51.232;17.110;2023-08-21T11:43:40;32.30;91.20
15133;DHT22;7667;51.232;17.110;2023-08-21T11:46:10;31.60;79.10
15133;DHT22;7667;51.232;17.110;2023-08-21T11:48:39;31.70;96.80
15133;DHT22;7667;51.232;17.110;2023-08-21T11:51:08;31.30;94.80
15133;DHT22;7667;51.232;17.110;2023-08-21T11:53:38;31.70;94.40
15133;DHT22;7667;51.232;17.110;2023-08-21T11:56:10;32.30;93.80
15133;DHT22;7667;51.232;17.110;2023-08-21T11:58:45;33.10;90.00
15133;DHT22;7667;51.232;17.110;2023-08-21T12:01:20;33.40;77.00
15133;DHT22;7667;51.232;17.110;2023-08-21T12:03:48;34.00;86.80
15133;DHT22;7667;51.232;17.110;2023-08-21T12:06:23;34.50;79.40
15133;DHT22;7667;51.232;17.110;2023-08-21T12:08:52;33.40;82.30
15133;DHT22;7667;51.232;17.110;2023-08-21T12:11:21;33.80;81.50
15133;DHT22;7667;51.232;17.110;2023-08-21T12:13:49;34.60;68.20
15133;DHT22;7667;51.232;17.110;2023-08-21T12:16:18;34.40;65.60
15133;DHT22;7667;51.232;17.110;2023-08-21T12:18:46;33.40;70.10
15133;DHT22;7667;51.232;17.110;2023-08-21T12:21:14;33.50;80.40
15133;DHT22;7667;51.232;17.110;2023-08-21T12:23:41;34.50;77.30
15133;DHT22;7667;51.232;17.110;2023-08-21T12:26:09;35.90;70.60
15133;DHT22;7667;51.232;17.110;2023-08-21T12:28:36;36.30;69.40
15133;DHT22;7667;51.232;17.110;2023-08-21T12:31:05;36.90;80.00
15133;DHT22;7667;51.232;17.110;2023-08-21T12:33:33;36.80;63.70
15133;DHT22;7667;51.232;17.110;2023-08-21T12:36:01;37.00;66.60
15133;DHT22;7667;51.232;17.110;2023-08-21T12:38:28;36.90;73.40
15133;DHT22;7667;51.232;17.110;2023-08-21T12:40:56;36.30;63.40
15133;DHT22;7667;51.232;17.110;2023-08-21T12:43:24;36.30;74.20
15133;DHT22;7667;51.232;17.110;2023-08-21T12:45:52;37.00;71.10
15133;DHT22;7667;51.232;17.110;2023-08-21T12:48:20;37.90;60.30
15133;DHT22;7667;51.232;17.110;2023-08-21T12:50:47;38.40;69.00
15133;DHT22;7667;51.232;17.110;2023-08-21T12:53:15;38.40;58.70
15133;DHT22;7667;51.232;17.110;2023-08-21T12:55:42;37.90;56.70
15133;DHT22;7667;51.232;17.110;2023-08-21T12:58:10;38.40;56.90
15133;DHT22;7667;51.232;17.110;2023-08-21T13:00:40;38.70;65.20
15133;DHT22;7667;51.232;17.110;2023-08-21T13:03:08;38.00;65.80
15133;DHT22;7667;51.232;17.110;2023-08-21T13:05:36;37.80;66.70
15133;DHT22;7667;51.232;17.110;2023-08-21T13:08:03;38.30;58.60
15133;DHT22;7667;51.232;17.110;2023-08-21T13:10:31;38.50;58.80
15133;DHT22;7667;51.232;17.110;2023-08-21T13:12:59;36.60;59.70
15133;DHT22;7667;51.232;17.110;2023-08-21T13:15:26;36.70;61.10
15133;DHT22;7667;51.232;17.110;2023-08-21T13:17:54;36.00;62.90
15133;DHT22;7667;51.232;17.110;2023-08-21T13:20:22;37.30;58.30
15133;DHT22;7667;51.232;17.110;2023-08-21T13:22:51;38.20;59.10
15133;DHT22;7667;51.232;17.110;2023-08-21T13:25:20;38.70;60.60
15133;DHT22;7667;51.232;17.110;2023-08-21T13:27:50;39.10;55.90
15133;DHT22;7667;51.232;17.110;2023-08-21T13:30:19;37.40;58.80
15133;DHT22;7667;51.232;17.110;2023-08-21T13:32:47;35.60;61.50
15133;DHT22;7667;51.232;17.110;2023-08-21T13:35:15;34.60;64.80
15133;DHT22;7667;51.232;17.110;2023-08-21T13:37:44;35.00;59.80
15133;DHT22;7667;51.232;17.110;2023-08-21T13:40:11;33.80;63.30
15133;DHT22;7667;51.232;17.110;2023-08-21T13:42:41;33.00;64.30
15133;DHT22;7667;51.232;17.110;2023-08-21T13:45:14;32.60;67.50
15133;DHT22;7667;51.232;17.110;2023-08-21T13:47:45;32.50;65.90
15133;DHT22;7667;51.232;17.110;2023-08-21T13:50:16;32.80;65.50
15133;DHT22;7667;51.232;17.110;2023-08-21T13:52:46;33.30;63.90
15133;DHT22;7667;51.232;17.110;2023-08-21T13:55:15;33.70;62.50
15133;DHT22;7667;51.232;17.110;2023-08-21T13:57:44;34.40;63.20
15133;DHT22;7667;51.232;17.110;2023-08-21T14:00:13;35.10;59.40
15133;DHT22;7667;51.232;17.110;2023-08-21T14:02:41;34.80;58.80
15133;DHT22;7667;51.232;17.110;2023-08-21T14:05:10;34.30;58.30
15133;DHT22;7667;51.232;17.110;2023-08-21T14:07:39;33.60;58.70
15133;DHT22;7667;51.232;17.110;2023-08-21T14:10:08;34.60;59.20
15133;DHT22;7667;51.232;17.110;2023-08-21T14:12:36;35.30;55.30
15133;DHT22;7667;51.232;17.110;2023-08-21T14:15:08;35.10;55.80
15133;DHT22;7667;51.232;17.110;2023-08-21T14:17:37;34.80;56.80
15133;DHT22;7667;51.232;17.110;2023-08-21T14:20:06;34.70;58.30
15133;DHT22;7667;51.232;17.110;2023-08-21T14:22:34;34.30;57.80
15133;DHT22;7667;51.232;17.110;2023-08-21T14:25:02;34.10;58.00
15133;DHT22;7667;51.232;17.110;2023-08-21T14:27:33;34.50;57.80
15133;DHT22;7667;51.232;17.110;2023-08-21T14:30:01;33.50;58.40
15133;DHT22;7667;51.232;17.110;2023-08-21T14:32:28;33.90;66.10
15133;DHT22;7667;51.232;17.110;2023-08-21T14:34:56;35.10;57.30
15133;DHT22;7667;51.232;17.110;2023-08-21T14:37:24;35.20;55.80
15133;DHT22;7667;51.232;17.110;2023-08-21T14:39:51;34.90;56.50
15133;DHT22;7667;51.232;17.110;2023-08-21T14:42:19;33.60;56.20
15133;DHT22;7667;51.232;17.110;2023-08-21T14:44:46;34.30;56.50
15133;DHT22;7667;51.232;17.110;2023-08-21T14:47:14;34.50;56.70
15133;DHT22;7667;51.232;17.110;2023-08-21T14:49:41;34.80;56.30
15133;DHT22;7667;51.232;17.110;2023-08-21T14:52:09;34.80;54.50
15133;DHT22;7667;51.232;17.110;2023-08-21T14:54:36;35.90;54.50
15133;DHT22;7667;51.232;17.110;2023-08-21T14:57:04;36.20;53.30
15133;DHT22;7667;51.232;17.110;2023-08-21T14:59:32;36.00;53.80
15133;DHT22;7667;51.232;17.110;2023-08-21T15:01:59;35.40;55.20
15133;DHT22;7667;51.232;17.110;2023-08-21T15:04:27;35.10;54.80
15133;DHT22;7667;51.232;17.110;2023-08-21T15:06:54;35.70;57.80
15133;DHT22;7667;51.232;17.110;2023-08-21T15:09:22;36.90;54.10
15133;DHT22;7667;51.232;17.110;2023-08-21T15:11:49;36.50;53.60
15133;DHT22;7667;51.232;17.110;2023-08-21T15:14:17;36.10;53.80
15133;DHT22;7667;51.232;17.110;2023-08-21T15:16:44;36.00;55.00
15133;DHT22;7667;51.232;17.110;2023-08-21T15:19:12;36.00;52.80
15133;DHT22;7667;51.232;17.110;2023-08-21T15:21:40;35.80;53.20
15133;DHT22;7667;51.232;17.110;2023-08-21T15:24:08;36.80;54.30
15133;DHT22;7667;51.232;17.110;2023-08-21T15:26:36;37.90;51.20
15133;DHT22;7667;51.232;17.110;2023-08-21T15:29:04;37.60;49.40
15133;DHT22;7667;51.232;17.110;2023-08-21T15:31:31;37.00;50.70
15133;DHT22;7667;51.232;17.110;2023-08-21T15:33:59;36.60;51.30
15133;DHT22;7667;51.232;17.110;2023-08-21T15:36:27;36.10;52.10
15133;DHT22;7667;51.232;17.110;2023-08-21T15:38:55;36.00;51.90
15133;DHT22;7667;51.232;17.110;2023-08-21T15:41:22;34.70;53.10
15133;DHT22;7667;51.232;17.110;2023-08-21T15:43:50;33.90;53.90
15133;DHT22;7667;51.232;17.110;2023-08-21T15:46:19;33.80;54.40
15133;DHT22;7667;51.232;17.110;2023-08-21T15:48:46;34.00;55.00
15133;DHT22;7667;51.232;17.110;2023-08-21T15:51:14;34.40;56.00
15133;DHT22;7667;51.232;17.110;2023-08-21T15:53:42;34.40;55.20
15133;DHT22;7667;51.232;17.110;2023-08-21T15:56:09;34.10;55.70